sensor_id;sensor_type;location;lat;lon;timestamp;P1;durP1;ratioP1;P2;durP2;ratioP2
703;SDS011;335;48.694;9.120;2023-02-07T00:01:53;12.90;;;10.20;;
703;SDS011;335;48.694;9.120;2023-02-07T00:04:19;12.70;;;10.90;;
703;SDS011;335;48.694;9.120;2023-02-07T00:06:44;12.30;;;10.47;;
703;SDS011;335;48.694;9.120;2023-02-07T00:09:10;13.63;;;9.13;;
703;SDS011;335;48.694;9.120;2023-02-07T00:11:37;13.45;;;9.75;;
703;SDS011;335;48.694;9.120;2023-02-07T00:14:05;12.15;;;9.27;;
703;SDS011;335;48.694;9.120;2023-02-07T00:16:31;10.82;;;7.55;;
703;SDS011;335;48.694;9.120;2023-02-07T00:18:56;9.43;;;8.40;;
703;SDS011;335;48.694;9.120;2023-02-07T00:21:22;10.27;;;9.20;;
703;SDS011;335;48.694;9.120;2023-02-07T00:23:48;10.55;;;8.02;;
703;SDS011;335;48.694;9.120;2023-02-07T00:26:15;14.47;;;10.00;;
703;SDS011;335;48.694;9.120;2023-02-07T00:28:41;13.90;;;9.55;;
703;SDS011;335;48.694;9.120;2023-02-07T00:31:11;12.60;;;9.80;;
703;SDS011;335;48.694;9.120;2023-02-07T00:33:41;13.43;;;9.55;;
703;SDS011;335;48.694;9.120;2023-02-07T00:36:08;14.07;;;9.50;;
703;SDS011;335;48.694;9.120;2023-02-07T00:38:35;12.57;;;9.55;;
703;SDS011;335;48.694;9.120;2023-02-07T00:41:01;13.50;;;9.73;;
703;SDS011;335;48.694;9.120;2023-02-07T00:43:27;14.00;;;9.47;;
703;SDS011;335;48.694;9.120;2023-02-07T00:45:54;12.57;;;10.27;;
703;SDS011;335;48.694;9.120;2023-02-07T00:48:19;14.37;;;10.60;;
703;SDS011;335;48.694;9.120;2023-02-07T00:50:45;14.27;;;10.23;;
703;SDS011;335;48.694;9.120;2023-02-07T00:53:10;14.97;;;10.73;;
703;SDS011;335;48.694;9.120;2023-02-07T00:55:35;14.47;;;11.60;;
703;SDS011;335;48.694;9.120;2023-02-07T00:58:01;12.20;;;10.53;;
703;SDS011;335;48.694;9.120;2023-02-07T01:00:26;14.53;;;11.17;;
703;SDS011;335;48.694;9.120;2023-02-07T01:02:51;17.57;;;11.80;;
703;SDS011;335;48.694;9.120;2023-02-07T01:05:16;14.00;;;11.53;;
703;SDS011;335;48.694;9.120;2023-02-07T01:07:42;18.40;;;12.50;;
703;SDS011;335;48.694;9.120;2023-02-07T01:10:07;14.07;;;11.37;;
703;SDS011;335;48.694;9.120;2023-02-07T01:12:34;15.02;;;11.65;;
703;SDS011;335;48.694;9.120;2023-02-07T01:14:59;15.53;;;11.13;;
703;SDS011;335;48.694;9.120;2023-02-07T01:17:25;16.17;;;11.80;;
703;SDS011;335;48.694;9.120;2023-02-07T01:19:54;14.00;;;11.63;;
703;SDS011;335;48.694;9.120;2023-02-07T01:22:21;15.32;;;12.82;;
703;SDS011;335;48.694;9.120;2023-02-07T01:24:48;14.93;;;11.55;;
703;SDS011;335;48.694;9.120;2023-02-07T01:27:13;17.77;;;12.17;;
703;SDS011;335;48.694;9.120;2023-02-07T01:29:39;14.93;;;11.67;;
703;SDS011;335;48.694;9.120;2023-02-07T01:32:04;15.37;;;11.50;;
703;SDS011;335;48.694;9.120;2023-02-07T01:34:29;19.10;;;12.00;;
703;SDS011;335;48.694;9.120;2023-02-07T01:36:55;15.00;;;12.10;;
703;SDS011;335;48.694;9.120;2023-02-07T01:39:20;12.73;;;11.03;;
703;SDS011;335;48.694;9.120;2023-02-07T01:41:45;15.77;;;10.80;;
703;SDS011;335;48.694;9.120;2023-02-07T01:46:45;15.63;;;11.60;;
703;SDS011;335;48.694;9.120;2023-02-07T01:49:11;13.47;;;11.80;;
703;SDS011;335;48.694;9.120;2023-02-07T01:51:37;14.02;;;11.85;;
703;SDS011;335;48.694;9.120;2023-02-07T01:54:08;13.88;;;11.95;;
703;SDS011;335;48.694;9.120;2023-02-07T01:56:35;12.80;;;10.57;;
703;SDS011;335;48.694;9.120;2023-02-07T01:59:03;14.38;;;11.07;;
703;SDS011;335;48.694;9.120;2023-02-07T02:01:30;15.10;;;10.90;;
703;SDS011;335;48.694;9.120;2023-02-07T02:03:55;15.23;;;11.13;;
703;SDS011;335;48.694;9.120;2023-02-07T02:06:21;14.13;;;11.67;;
703;SDS011;335;48.694;9.120;2023-02-07T02:08:50;16.60;;;12.13;;
703;SDS011;335;48.694;9.120;2023-02-07T02:19:46;15.20;;;12.27;;
703;SDS011;335;48.694;9.120;2023-02-07T02:25:14;15.70;;;12.23;;
703;SDS011;335;48.694;9.120;2023-02-07T02:28:03;15.75;;;12.68;;
703;SDS011;335;48.694;9.120;2023-02-07T02:36:05;17.25;;;13.50;;
703;SDS011;335;48.694;9.120;2023-02-07T02:41:28;17.42;;;14.32;;
703;SDS011;335;48.694;9.120;2023-02-07T02:43:57;18.35;;;13.77;;
703;SDS011;335;48.694;9.120;2023-02-07T02:46:29;19.48;;;13.90;;
703;SDS011;335;48.694;9.120;2023-02-07T02:48:55;17.95;;;14.68;;
703;SDS011;335;48.694;9.120;2023-02-07T02:51:22;24.27;;;16.25;;
703;SDS011;335;48.694;9.120;2023-02-07T02:53:54;16.93;;;14.10;;
703;SDS011;335;48.694;9.120;2023-02-07T02:56:30;21.63;;;15.55;;
703;SDS011;335;48.694;9.120;2023-02-07T03:02:02;17.25;;;13.77;;
703;SDS011;335;48.694;9.120;2023-02-07T03:04:48;19.17;;;14.20;;
703;SDS011;335;48.694;9.120;2023-02-07T03:10:03;22.02;;;15.55;;
703;SDS011;335;48.694;9.120;2023-02-07T03:12:39;20.52;;;16.40;;
703;SDS011;335;48.694;9.120;2023-02-07T03:15:16;19.13;;;15.20;;
703;SDS011;335;48.694;9.120;2023-02-07T03:17:53;19.55;;;14.75;;
703;SDS011;335;48.694;9.120;2023-02-07T03:20:21;18.67;;;14.88;;
703;SDS011;335;48.694;9.120;2023-02-07T03:22:55;19.90;;;15.02;;
703;SDS011;335;48.694;9.120;2023-02-07T03:25:21;19.33;;;17.17;;
703;SDS011;335;48.694;9.120;2023-02-07T03:27:47;21.83;;;17.20;;
703;SDS011;335;48.694;9.120;2023-02-07T03:30:14;18.73;;;15.60;;
703;SDS011;335;48.694;9.120;2023-02-07T03:32:41;20.10;;;16.30;;
703;SDS011;335;48.694;9.120;2023-02-07T03:35:11;23.48;;;17.58;;
703;SDS011;335;48.694;9.120;2023-02-07T03:37:40;24.10;;;18.17;;
703;SDS011;335;48.694;9.120;2023-02-07T03:40:07;22.83;;;16.40;;
703;SDS011;335;48.694;9.120;2023-02-07T03:42:37;24.48;;;19.70;;
703;SDS011;335;48.694;9.120;2023-02-07T03:45:06;24.58;;;18.48;;
703;SDS011;335;48.694;9.120;2023-02-07T03:47:34;26.05;;;19.33;;
703;SDS011;335;48.694;9.120;2023-02-07T03:49:59;20.40;;;17.67;;
703;SDS011;335;48.694;9.120;2023-02-07T03:52:24;24.60;;;19.47;;
703;SDS011;335;48.694;9.120;2023-02-07T03:54:50;26.17;;;20.17;;
703;SDS011;335;48.694;9.120;2023-02-07T03:57:15;26.90;;;20.80;;
703;SDS011;335;48.694;9.120;2023-02-07T03:59:40;25.20;;;19.43;;
703;SDS011;335;48.694;9.120;2023-02-07T04:02:05;22.40;;;18.23;;
703;SDS011;335;48.694;9.120;2023-02-07T04:04:31;24.90;;;20.07;;
703;SDS011;335;48.694;9.120;2023-02-07T04:06:56;24.37;;;18.80;;
703;SDS011;335;48.694;9.120;2023-02-07T04:09:21;25.43;;;19.93;;
703;SDS011;335;48.694;9.120;2023-02-07T04:11:47;26.30;;;19.77;;
703;SDS011;335;48.694;9.120;2023-02-07T04:14:13;25.50;;;19.60;;
703;SDS011;335;48.694;9.120;2023-02-07T04:16:39;22.90;;;18.70;;
703;SDS011;335;48.694;9.120;2023-02-07T04:19:04;27.30;;;19.57;;
703;SDS011;335;48.694;9.120;2023-02-07T04:21:29;21.33;;;17.60;;
703;SDS011;335;48.694;9.120;2023-02-07T04:23:55;23.33;;;18.10;;
703;SDS011;335;48.694;9.120;2023-02-07T04:26:20;22.90;;;17.27;;
703;SDS011;335;48.694;9.120;2023-02-07T04:28:45;21.40;;;15.53;;
703;SDS011;335;48.694;9.120;2023-02-07T04:31:10;30.67;;;17.83;;
703;SDS011;335;48.694;9.120;2023-02-07T04:33:36;21.90;;;17.63;;
703;SDS011;335;48.694;9.120;2023-02-07T04:36:01;20.70;;;17.13;;
703;SDS011;335;48.694;9.120;2023-02-07T04:38:27;22.70;;;17.88;;
703;SDS011;335;48.694;9.120;2023-02-07T04:40:56;22.50;;;17.70;;
703;SDS011;335;48.694;9.120;2023-02-07T04:43:23;23.20;;;17.60;;
703;SDS011;335;48.694;9.120;2023-02-07T04:45:48;24.20;;;17.43;;
703;SDS011;335;48.694;9.120;2023-02-07T04:48:14;21.13;;;16.30;;
703;SDS011;335;48.694;9.120;2023-02-07T04:50:39;21.20;;;17.57;;
703;SDS011;335;48.694;9.120;2023-02-07T04:53:04;22.17;;;16.90;;
703;SDS011;335;48.694;9.120;2023-02-07T04:55:30;22.27;;;18.83;;
703;SDS011;335;48.694;9.120;2023-02-07T04:57:55;22.03;;;17.60;;
703;SDS011;335;48.694;9.120;2023-02-07T05:00:20;22.33;;;18.57;;
703;SDS011;335;48.694;9.120;2023-02-07T05:02:46;22.67;;;17.70;;
703;SDS011;335;48.694;9.120;2023-02-07T05:05:11;23.33;;;18.20;;
703;SDS011;335;48.694;9.120;2023-02-07T05:07:36;21.13;;;17.53;;
703;SDS011;335;48.694;9.120;2023-02-07T05:10:02;19.30;;;16.53;;
703;SDS011;335;48.694;9.120;2023-02-07T05:12:27;22.53;;;17.27;;
703;SDS011;335;48.694;9.120;2023-02-07T05:14:53;19.50;;;16.53;;
703;SDS011;335;48.694;9.120;2023-02-07T05:17:18;21.27;;;17.70;;
703;SDS011;335;48.694;9.120;2023-02-07T05:19:43;23.07;;;18.20;;
703;SDS011;335;48.694;9.120;2023-02-07T05:22:09;20.57;;;17.37;;
703;SDS011;335;48.694;9.120;2023-02-07T05:24:34;23.33;;;17.33;;
703;SDS011;335;48.694;9.120;2023-02-07T05:26:59;20.67;;;16.87;;
703;SDS011;335;48.694;9.120;2023-02-07T05:29:25;19.60;;;16.80;;
703;SDS011;335;48.694;9.120;2023-02-07T05:31:50;21.77;;;17.60;;
703;SDS011;335;48.694;9.120;2023-02-07T05:34:34;24.65;;;15.82;;
703;SDS011;335;48.694;9.120;2023-02-07T05:36:59;23.70;;;18.23;;
703;SDS011;335;48.694;9.120;2023-02-07T05:39:25;20.57;;;16.10;;
703;SDS011;335;48.694;9.120;2023-02-07T05:41:50;22.53;;;16.47;;
703;SDS011;335;48.694;9.120;2023-02-07T05:44:15;20.37;;;15.70;;
703;SDS011;335;48.694;9.120;2023-02-07T05:46:41;19.13;;;15.87;;
703;SDS011;335;48.694;9.120;2023-02-07T05:49:06;19.37;;;15.60;;
703;SDS011;335;48.694;9.120;2023-02-07T05:51:31;20.37;;;15.20;;
703;SDS011;335;48.694;9.120;2023-02-07T05:53:57;16.57;;;14.20;;
703;SDS011;335;48.694;9.120;2023-02-07T05:56:22;20.57;;;15.17;;
703;SDS011;335;48.694;9.120;2023-02-07T05:58:47;21.70;;;17.40;;
703;SDS011;335;48.694;9.120;2023-02-07T06:01:13;20.07;;;15.93;;
703;SDS011;335;48.694;9.120;2023-02-07T06:03:38;20.63;;;17.03;;
703;SDS011;335;48.694;9.120;2023-02-07T06:06:03;20.00;;;16.10;;
703;SDS011;335;48.694;9.120;2023-02-07T06:08:29;20.00;;;15.53;;
703;SDS011;335;48.694;9.120;2023-02-07T06:10:54;21.50;;;16.67;;
703;SDS011;335;48.694;9.120;2023-02-07T06:13:19;20.40;;;14.90;;
703;SDS011;335;48.694;9.120;2023-02-07T06:15:45;20.67;;;17.00;;
703;SDS011;335;48.694;9.120;2023-02-07T06:18:11;22.10;;;17.90;;
703;SDS011;335;48.694;9.120;2023-02-07T06:20:36;21.67;;;17.20;;
703;SDS011;335;48.694;9.120;2023-02-07T06:23:02;26.10;;;17.50;;
703;SDS011;335;48.694;9.120;2023-02-07T06:25:27;19.73;;;14.87;;
703;SDS011;335;48.694;9.120;2023-02-07T06:27:52;21.67;;;16.10;;
703;SDS011;335;48.694;9.120;2023-02-07T06:30:18;25.50;;;15.80;;
703;SDS011;335;48.694;9.120;2023-02-07T06:32:43;23.40;;;17.00;;
703;SDS011;335;48.694;9.120;2023-02-07T06:35:08;22.63;;;18.07;;
703;SDS011;335;48.694;9.120;2023-02-07T06:37:34;26.27;;;16.53;;
703;SDS011;335;48.694;9.120;2023-02-07T06:39:59;24.43;;;15.77;;
703;SDS011;335;48.694;9.120;2023-02-07T06:42:24;23.13;;;17.87;;
703;SDS011;335;48.694;9.120;2023-02-07T06:44:50;22.00;;;18.93;;
703;SDS011;335;48.694;9.120;2023-02-07T06:47:15;20.73;;;17.03;;
703;SDS011;335;48.694;9.120;2023-02-07T06:49:43;25.00;;;17.65;;
703;SDS011;335;48.694;9.120;2023-02-07T06:52:08;20.10;;;17.00;;
703;SDS011;335;48.694;9.120;2023-02-07T06:54:34;21.53;;;15.70;;
703;SDS011;335;48.694;9.120;2023-02-07T06:56:59;17.23;;;14.03;;
703;SDS011;335;48.694;9.120;2023-02-07T06:59:24;19.43;;;15.43;;
703;SDS011;335;48.694;9.120;2023-02-07T07:01:50;20.27;;;14.90;;
703;SDS011;335;48.694;9.120;2023-02-07T07:04:15;22.37;;;16.63;;
703;SDS011;335;48.694;9.120;2023-02-07T07:06:42;18.60;;;16.13;;
703;SDS011;335;48.694;9.120;2023-02-07T07:09:07;21.03;;;15.30;;
703;SDS011;335;48.694;9.120;2023-02-07T07:11:32;19.70;;;14.97;;
703;SDS011;335;48.694;9.120;2023-02-07T07:13:58;19.90;;;16.23;;
703;SDS011;335;48.694;9.120;2023-02-07T07:16:24;18.92;;;15.98;;
703;SDS011;335;48.694;9.120;2023-02-07T07:18:49;20.07;;;14.70;;
703;SDS011;335;48.694;9.120;2023-02-07T07:21:15;19.53;;;16.50;;
703;SDS011;335;48.694;9.120;2023-02-07T07:23:40;17.70;;;14.77;;
703;SDS011;335;48.694;9.120;2023-02-07T07:26:06;20.60;;;16.30;;
703;SDS011;335;48.694;9.120;2023-02-07T07:28:31;18.83;;;14.30;;
703;SDS011;335;48.694;9.120;2023-02-07T07:31:01;18.73;;;14.67;;
703;SDS011;335;48.694;9.120;2023-02-07T07:33:27;19.38;;;14.57;;
703;SDS011;335;48.694;9.120;2023-02-07T07:35:56;21.83;;;16.57;;
703;SDS011;335;48.694;9.120;2023-02-07T07:38:22;17.00;;;14.73;;
703;SDS011;335;48.694;9.120;2023-02-07T07:40:47;16.73;;;13.50;;
703;SDS011;335;48.694;9.120;2023-02-07T07:43:13;17.10;;;13.93;;
703;SDS011;335;48.694;9.120;2023-02-07T07:45:39;19.03;;;14.60;;
703;SDS011;335;48.694;9.120;2023-02-07T07:48:04;16.93;;;13.17;;
703;SDS011;335;48.694;9.120;2023-02-07T07:50:29;14.97;;;13.37;;
703;SDS011;335;48.694;9.120;2023-02-07T07:52:55;18.23;;;13.80;;
703;SDS011;335;48.694;9.120;2023-02-07T07:55:20;16.03;;;14.23;;
703;SDS011;335;48.694;9.120;2023-02-07T07:57:45;16.63;;;13.47;;
703;SDS011;335;48.694;9.120;2023-02-07T08:00:11;21.87;;;13.37;;
703;SDS011;335;48.694;9.120;2023-02-07T08:02:37;22.52;;;15.50;;
703;SDS011;335;48.694;9.120;2023-02-07T08:05:02;18.60;;;15.50;;
703;SDS011;335;48.694;9.120;2023-02-07T08:07:27;16.70;;;13.00;;
703;SDS011;335;48.694;9.120;2023-02-07T08:09:53;16.70;;;14.10;;
703;SDS011;335;48.694;9.120;2023-02-07T08:12:18;21.00;;;14.30;;
703;SDS011;335;48.694;9.120;2023-02-07T08:14:43;16.00;;;12.90;;
703;SDS011;335;48.694;9.120;2023-02-07T08:17:09;16.60;;;13.10;;
703;SDS011;335;48.694;9.120;2023-02-07T08:19:34;20.90;;;13.50;;
703;SDS011;335;48.694;9.120;2023-02-07T08:22:02;15.68;;;13.15;;
703;SDS011;335;48.694;9.120;2023-02-07T08:24:27;19.10;;;13.80;;
703;SDS011;335;48.694;9.120;2023-02-07T08:26:52;19.73;;;14.53;;
703;SDS011;335;48.694;9.120;2023-02-07T08:29:18;16.30;;;13.70;;
703;SDS011;335;48.694;9.120;2023-02-07T08:31:43;18.57;;;14.83;;
703;SDS011;335;48.694;9.120;2023-02-07T08:34:08;16.93;;;15.03;;
703;SDS011;335;48.694;9.120;2023-02-07T08:36:35;14.20;;;12.75;;
703;SDS011;335;48.694;9.120;2023-02-07T08:39:01;14.20;;;12.70;;
703;SDS011;335;48.694;9.120;2023-02-07T08:41:26;16.27;;;13.70;;
703;SDS011;335;48.694;9.120;2023-02-07T08:43:52;14.03;;;12.53;;
703;SDS011;335;48.694;9.120;2023-02-07T08:46:17;13.17;;;11.33;;
703;SDS011;335;48.694;9.120;2023-02-07T08:48:42;12.70;;;11.37;;
703;SDS011;335;48.694;9.120;2023-02-07T08:51:08;11.57;;;10.37;;
703;SDS011;335;48.694;9.120;2023-02-07T08:53:34;11.30;;;9.57;;
703;SDS011;335;48.694;9.120;2023-02-07T08:55:59;11.00;;;10.00;;
703;SDS011;335;48.694;9.120;2023-02-07T08:58:25;11.47;;;10.47;;
703;SDS011;335;48.694;9.120;2023-02-07T09:00:50;11.10;;;10.10;;
703;SDS011;335;48.694;9.120;2023-02-07T09:03:15;12.07;;;10.87;;
703;SDS011;335;48.694;9.120;2023-02-07T09:05:41;11.20;;;10.00;;
703;SDS011;335;48.694;9.120;2023-02-07T09:08:06;12.07;;;11.00;;
703;SDS011;335;48.694;9.120;2023-02-07T09:10:31;11.07;;;10.17;;
703;SDS011;335;48.694;9.120;2023-02-07T09:12:57;10.93;;;9.93;;
703;SDS011;335;48.694;9.120;2023-02-07T09:15:22;11.10;;;10.00;;
703;SDS011;335;48.694;9.120;2023-02-07T09:17:48;11.37;;;10.30;;
703;SDS011;335;48.694;9.120;2023-02-07T09:20:13;9.60;;;8.80;;
703;SDS011;335;48.694;9.120;2023-02-07T09:22:38;10.93;;;9.73;;
703;SDS011;335;48.694;9.120;2023-02-07T09:25:23;10.33;;;9.53;;
703;SDS011;335;48.694;9.120;2023-02-07T09:27:49;9.57;;;8.87;;
703;SDS011;335;48.694;9.120;2023-02-07T09:30:14;9.93;;;9.13;;
703;SDS011;335;48.694;9.120;2023-02-07T09:32:40;16.23;;;14.70;;
703;SDS011;335;48.694;9.120;2023-02-07T09:35:05;12.20;;;11.20;;
703;SDS011;335;48.694;9.120;2023-02-07T09:37:32;14.67;;;13.27;;
703;SDS011;335;48.694;9.120;2023-02-07T09:39:58;9.70;;;8.90;;
703;SDS011;335;48.694;9.120;2023-02-07T09:42:44;10.50;;;9.50;;
703;SDS011;335;48.694;9.120;2023-02-07T09:45:16;10.20;;;9.30;;
703;SDS011;335;48.694;9.120;2023-02-07T09:47:43;10.93;;;10.13;;
703;SDS011;335;48.694;9.120;2023-02-07T09:50:12;11.33;;;10.47;;
703;SDS011;335;48.694;9.120;2023-02-07T09:52:42;10.43;;;9.47;;
703;SDS011;335;48.694;9.120;2023-02-07T09:55:17;10.10;;;9.40;;
703;SDS011;335;48.694;9.120;2023-02-07T09:57:47;9.97;;;9.20;;
703;SDS011;335;48.694;9.120;2023-02-07T10:00:20;10.83;;;10.03;;
703;SDS011;335;48.694;9.120;2023-02-07T10:05:31;10.33;;;9.43;;
703;SDS011;335;48.694;9.120;2023-02-07T10:08:03;11.23;;;10.13;;
703;SDS011;335;48.694;9.120;2023-02-07T10:10:37;10.97;;;10.10;;
703;SDS011;335;48.694;9.120;2023-02-07T10:13:15;10.23;;;9.33;;
703;SDS011;335;48.694;9.120;2023-02-07T10:21:04;9.83;;;8.93;;
703;SDS011;335;48.694;9.120;2023-02-07T10:23:40;9.93;;;9.03;;
703;SDS011;335;48.694;9.120;2023-02-07T10:31:42;11.23;;;10.27;;
703;SDS011;335;48.694;9.120;2023-02-07T10:34:13;10.60;;;9.70;;
703;SDS011;335;48.694;9.120;2023-02-07T10:36:46;10.17;;;9.37;;
703;SDS011;335;48.694;9.120;2023-02-07T10:39:15;10.70;;;9.80;;
703;SDS011;335;48.694;9.120;2023-02-07T10:41:47;9.60;;;9.00;;
703;SDS011;335;48.694;9.120;2023-02-07T10:44:16;10.47;;;9.63;;
703;SDS011;335;48.694;9.120;2023-02-07T10:46:44;8.07;;;7.57;;
703;SDS011;335;48.694;9.120;2023-02-07T10:49:20;9.23;;;8.53;;
703;SDS011;335;48.694;9.120;2023-02-07T10:51:50;9.70;;;8.93;;
703;SDS011;335;48.694;9.120;2023-02-07T10:54:17;8.90;;;8.20;;
703;SDS011;335;48.694;9.120;2023-02-07T10:56:45;10.10;;;9.30;;
703;SDS011;335;48.694;9.120;2023-02-07T11:01:59;9.77;;;9.07;;
703;SDS011;335;48.694;9.120;2023-02-07T11:04:38;9.60;;;8.80;;
703;SDS011;335;48.694;9.120;2023-02-07T11:07:13;9.57;;;8.67;;
703;SDS011;335;48.694;9.120;2023-02-07T11:09:39;9.27;;;8.57;;
703;SDS011;335;48.694;9.120;2023-02-07T11:12:13;9.60;;;8.90;;
703;SDS011;335;48.694;9.120;2023-02-07T11:14:52;8.93;;;8.23;;
703;SDS011;335;48.694;9.120;2023-02-07T11:17:27;9.07;;;8.27;;
703;SDS011;335;48.694;9.120;2023-02-07T11:19:52;8.00;;;7.50;;
703;SDS011;335;48.694;9.120;2023-02-07T11:22:19;8.30;;;7.50;;
703;SDS011;335;48.694;9.120;2023-02-07T11:24:45;8.20;;;7.70;;
703;SDS011;335;48.694;9.120;2023-02-07T11:27:15;9.23;;;8.50;;
703;SDS011;335;48.694;9.120;2023-02-07T11:29:44;8.93;;;8.40;;
703;SDS011;335;48.694;9.120;2023-02-07T11:32:19;8.70;;;8.10;;
703;SDS011;335;48.694;9.120;2023-02-07T11:34:59;9.00;;;8.30;;
703;SDS011;335;48.694;9.120;2023-02-07T11:37:33;8.97;;;8.37;;
703;SDS011;335;48.694;9.120;2023-02-07T11:42:43;7.60;;;7.10;;
703;SDS011;335;48.694;9.120;2023-02-07T11:45:12;7.97;;;7.40;;
703;SDS011;335;48.694;9.120;2023-02-07T11:47:40;9.20;;;8.60;;
703;SDS011;335;48.694;9.120;2023-02-07T11:50:06;8.60;;;7.90;;
703;SDS011;335;48.694;9.120;2023-02-07T11:52:33;8.40;;;7.67;;
703;SDS011;335;48.694;9.120;2023-02-07T11:55:02;9.13;;;7.60;;
703;SDS011;335;48.694;9.120;2023-02-07T11:57:31;8.20;;;7.50;;
703;SDS011;335;48.694;9.120;2023-02-07T12:00:02;9.07;;;8.37;;
703;SDS011;335;48.694;9.120;2023-02-07T12:02:32;8.03;;;7.37;;
703;SDS011;335;48.694;9.120;2023-02-07T12:05:07;7.70;;;7.20;;
703;SDS011;335;48.694;9.120;2023-02-07T12:07:41;7.23;;;6.57;;
703;SDS011;335;48.694;9.120;2023-02-07T12:10:10;6.70;;;6.17;;
703;SDS011;335;48.694;9.120;2023-02-07T12:12:41;8.50;;;7.87;;
703;SDS011;335;48.694;9.120;2023-02-07T12:15:12;6.47;;;5.83;;
703;SDS011;335;48.694;9.120;2023-02-07T12:17:53;6.83;;;6.10;;
703;SDS011;335;48.694;9.120;2023-02-07T12:20:24;5.77;;;5.30;;
703;SDS011;335;48.694;9.120;2023-02-07T12:23:05;6.10;;;5.70;;
703;SDS011;335;48.694;9.120;2023-02-07T12:25:41;6.50;;;6.00;;
703;SDS011;335;48.694;9.120;2023-02-07T12:28:14;6.63;;;6.17;;
703;SDS011;335;48.694;9.120;2023-02-07T12:30:45;5.97;;;5.57;;
703;SDS011;335;48.694;9.120;2023-02-07T12:36:11;7.00;;;6.50;;
703;SDS011;335;48.694;9.120;2023-02-07T12:38:44;7.20;;;6.70;;
703;SDS011;335;48.694;9.120;2023-02-07T12:41:14;6.30;;;5.80;;
703;SDS011;335;48.694;9.120;2023-02-07T12:43:50;7.03;;;6.53;;
703;SDS011;335;48.694;9.120;2023-02-07T12:46:25;7.10;;;6.47;;
703;SDS011;335;48.694;9.120;2023-02-07T12:49:05;6.70;;;6.00;;
703;SDS011;335;48.694;9.120;2023-02-07T12:51:48;6.40;;;6.00;;
703;SDS011;335;48.694;9.120;2023-02-07T12:57:23;7.10;;;6.50;;
703;SDS011;335;48.694;9.120;2023-02-07T13:10:53;6.20;;;5.80;;
703;SDS011;335;48.694;9.120;2023-02-07T13:13:34;6.27;;;5.90;;
703;SDS011;335;48.694;9.120;2023-02-07T13:16:05;6.87;;;6.27;;
703;SDS011;335;48.694;9.120;2023-02-07T13:18:40;7.00;;;6.43;;
703;SDS011;335;48.694;9.120;2023-02-07T13:21:36;7.00;;;6.50;;
703;SDS011;335;48.694;9.120;2023-02-07T13:24:06;6.90;;;6.40;;
703;SDS011;335;48.694;9.120;2023-02-07T13:26:34;6.73;;;5.70;;
703;SDS011;335;48.694;9.120;2023-02-07T13:29:01;7.07;;;6.53;;
703;SDS011;335;48.694;9.120;2023-02-07T13:35:10;7.63;;;6.87;;
703;SDS011;335;48.694;9.120;2023-02-07T13:37:25;7.87;;;7.07;;
703;SDS011;335;48.694;9.120;2023-02-07T13:45:48;8.83;;;8.13;;
703;SDS011;335;48.694;9.120;2023-02-07T13:50:58;8.97;;;8.37;;
703;SDS011;335;48.694;9.120;2023-02-07T13:53:33;8.57;;;7.93;;
703;SDS011;335;48.694;9.120;2023-02-07T13:56:12;7.03;;;5.87;;
703;SDS011;335;48.694;9.120;2023-02-07T13:59:22;9.07;;;8.40;;
703;SDS011;335;48.694;9.120;2023-02-07T14:02:03;8.87;;;8.10;;
703;SDS011;335;48.694;9.120;2023-02-07T14:04:44;8.73;;;7.90;;
703;SDS011;335;48.694;9.120;2023-02-07T14:07:24;8.60;;;8.10;;
703;SDS011;335;48.694;9.120;2023-02-07T14:09:53;8.20;;;7.70;;
703;SDS011;335;48.694;9.120;2023-02-07T14:14:50;7.77;;;7.27;;
703;SDS011;335;48.694;9.120;2023-02-07T14:19:51;10.00;;;9.20;;
703;SDS011;335;48.694;9.120;2023-02-07T14:22:21;8.30;;;7.70;;
703;SDS011;335;48.694;9.120;2023-02-07T14:27:42;7.13;;;6.53;;
703;SDS011;335;48.694;9.120;2023-02-07T14:30:27;7.80;;;7.20;;
703;SDS011;335;48.694;9.120;2023-02-07T14:33:11;8.10;;;7.50;;
703;SDS011;335;48.694;9.120;2023-02-07T14:39:31;6.63;;;5.97;;
703;SDS011;335;48.694;9.120;2023-02-07T14:41:35;8.37;;;7.60;;
703;SDS011;335;48.694;9.120;2023-02-07T14:44:02;7.70;;;7.20;;
703;SDS011;335;48.694;9.120;2023-02-07T14:46:31;9.10;;;8.50;;
703;SDS011;335;48.694;9.120;2023-02-07T14:49:00;7.70;;;7.00;;
703;SDS011;335;48.694;9.120;2023-02-07T14:51:40;6.63;;;6.13;;
703;SDS011;335;48.694;9.120;2023-02-07T14:54:13;7.40;;;6.90;;
703;SDS011;335;48.694;9.120;2023-02-07T14:56:48;8.10;;;7.37;;
703;SDS011;335;48.694;9.120;2023-02-07T14:59:22;7.87;;;7.17;;
703;SDS011;335;48.694;9.120;2023-02-07T15:01:52;6.70;;;6.20;;
703;SDS011;335;48.694;9.120;2023-02-07T15:04:17;7.17;;;6.60;;
703;SDS011;335;48.694;9.120;2023-02-07T15:06:43;7.57;;;6.90;;
703;SDS011;335;48.694;9.120;2023-02-07T15:09:17;6.83;;;6.23;;
703;SDS011;335;48.694;9.120;2023-02-07T15:11:44;7.33;;;6.73;;
703;SDS011;335;48.694;9.120;2023-02-07T15:14:17;7.47;;;6.73;;
703;SDS011;335;48.694;9.120;2023-02-07T15:16:45;8.23;;;7.27;;
703;SDS011;335;48.694;9.120;2023-02-07T15:19:13;7.93;;;7.07;;
703;SDS011;335;48.694;9.120;2023-02-07T15:21:45;6.03;;;5.50;;
703;SDS011;335;48.694;9.120;2023-02-07T15:26:58;6.38;;;5.82;;
703;SDS011;335;48.694;9.120;2023-02-07T15:29:26;6.00;;;5.53;;
703;SDS011;335;48.694;9.120;2023-02-07T15:31:54;8.52;;;5.95;;
703;SDS011;335;48.694;9.120;2023-02-07T15:34:20;6.70;;;5.90;;
703;SDS011;335;48.694;9.120;2023-02-07T15:36:47;5.68;;;4.57;;
703;SDS011;335;48.694;9.120;2023-02-07T15:39:21;6.57;;;5.90;;
703;SDS011;335;48.694;9.120;2023-02-07T15:41:48;5.65;;;5.20;;
703;SDS011;335;48.694;9.120;2023-02-07T15:44:19;5.82;;;5.40;;
703;SDS011;335;48.694;9.120;2023-02-07T15:47:02;4.07;;;3.78;;
703;SDS011;335;48.694;9.120;2023-02-07T15:54:39;5.25;;;4.43;;
703;SDS011;335;48.694;9.120;2023-02-07T15:57:43;4.40;;;4.00;;
703;SDS011;335;48.694;9.120;2023-02-07T16:00:05;3.92;;;3.60;;
703;SDS011;335;48.694;9.120;2023-02-07T16:02:34;4.75;;;3.90;;
703;SDS011;335;48.694;9.120;2023-02-07T16:05:11;6.68;;;3.50;;
703;SDS011;335;48.694;9.120;2023-02-07T16:07:44;5.13;;;4.05;;
703;SDS011;335;48.694;9.120;2023-02-07T16:10:16;4.18;;;3.35;;
703;SDS011;335;48.694;9.120;2023-02-07T16:12:45;5.65;;;3.90;;
703;SDS011;335;48.694;9.120;2023-02-07T16:15:25;5.40;;;4.40;;
703;SDS011;335;48.694;9.120;2023-02-07T16:18:01;4.38;;;3.97;;
703;SDS011;335;48.694;9.120;2023-02-07T16:20:28;5.55;;;4.93;;
703;SDS011;335;48.694;9.120;2023-02-07T16:22:55;5.05;;;4.50;;
703;SDS011;335;48.694;9.120;2023-02-07T16:25:25;9.15;;;7.00;;
703;SDS011;335;48.694;9.120;2023-02-07T16:27:52;5.35;;;4.43;;
703;SDS011;335;48.694;9.120;2023-02-07T16:30:19;5.23;;;4.70;;
703;SDS011;335;48.694;9.120;2023-02-07T16:32:48;6.70;;;5.07;;
703;SDS011;335;48.694;9.120;2023-02-07T16:35:18;5.60;;;5.10;;
703;SDS011;335;48.694;9.120;2023-02-07T16:37:48;8.30;;;5.25;;
703;SDS011;335;48.694;9.120;2023-02-07T16:40:14;7.53;;;5.60;;
703;SDS011;335;48.694;9.120;2023-02-07T16:42:40;8.35;;;5.97;;
703;SDS011;335;48.694;9.120;2023-02-07T16:45:09;5.63;;;4.90;;
703;SDS011;335;48.694;9.120;2023-02-07T16:47:40;5.93;;;5.35;;
703;SDS011;335;48.694;9.120;2023-02-07T16:50:11;8.83;;;6.50;;
703;SDS011;335;48.694;9.120;2023-02-07T16:52:37;6.32;;;5.70;;
703;SDS011;335;48.694;9.120;2023-02-07T16:55:03;10.23;;;7.50;;
703;SDS011;335;48.694;9.120;2023-02-07T16:57:28;8.40;;;5.90;;
703;SDS011;335;48.694;9.120;2023-02-07T16:59:53;9.13;;;6.40;;
703;SDS011;335;48.694;9.120;2023-02-07T17:02:19;7.03;;;6.03;;
703;SDS011;335;48.694;9.120;2023-02-07T17:04:44;8.00;;;5.10;;
703;SDS011;335;48.694;9.120;2023-02-07T17:07:10;8.13;;;5.17;;
703;SDS011;335;48.694;9.120;2023-02-07T17:09:36;5.97;;;5.47;;
703;SDS011;335;48.694;9.120;2023-02-07T17:12:02;7.22;;;6.45;;